createdAt,value
2023-05-01T00:02:09.200Z,14.12
2023-05-01T00:05:12.861Z,14.05
2023-05-01T00:08:16.616Z,14.12
2023-05-01T00:11:19.958Z,14.12
2023-05-01T00:14:23.288Z,14.21
2023-05-01T00:17:26.723Z,14.26
2023-05-01T00:20:30.638Z,14.35
2023-05-01T00:23:34.114Z,14.29
2023-05-01T00:26:37.447Z,14.33
2023-05-01T00:29:40.718Z,14.38
2023-05-01T00:32:44.408Z,14.56
2023-05-01T00:35:47.990Z,14.49
2023-05-01T00:38:51.370Z,14.55
2023-05-01T00:41:55.643Z,14.62
2023-05-01T00:45:06.866Z,14.59
2023-05-01T00:48:11.494Z,14.60
2023-05-01T00:51:15.910Z,14.50
2023-05-01T00:54:19.727Z,14.52
2023-05-01T00:57:23.195Z,14.56
2023-05-01T01:00:26.666Z,14.67
2023-05-01T01:03:31.030Z,14.72
2023-05-01T01:06:58.043Z,14.80
2023-05-01T01:10:13.562Z,14.87
2023-05-01T01:13:26.390Z,14.85
2023-05-01T01:16:46.011Z,15.07
2023-05-01T01:19:50.006Z,15.22
2023-05-01T01:23:26.720Z,15.46
2023-05-01T01:26:38.690Z,15.52
2023-05-01T01:29:47.825Z,15.89
2023-05-01T01:33:13.048Z,15.82
2023-05-01T01:36:44.935Z,16.04
2023-05-01T01:39:56.078Z,16.21
2023-05-01T01:43:05.368Z,16.45
2023-05-01T01:46:11.240Z,16.60
2023-05-01T01:49:22.628Z,16.70
2023-05-01T01:52:29.902Z,17.01
2023-05-01T01:55:37.033Z,16.99
2023-05-01T01:58:41.806Z,17.12
2023-05-01T02:01:46.454Z,17.21
2023-05-01T02:08:10.831Z,17.50
2023-05-01T02:11:16.551Z,17.55
2023-05-01T02:14:22.501Z,17.70
2023-05-01T02:17:28.325Z,17.89
2023-05-01T02:20:31.916Z,17.98
2023-05-01T02:23:35.635Z,18.25
2023-05-01T02:26:43.984Z,18.62
2023-05-01T02:29:47.595Z,18.32
2023-05-01T02:32:51.018Z,18.55
2023-05-01T02:35:57.556Z,18.67
2023-05-01T02:39:04.390Z,18.52
2023-05-01T02:42:13.388Z,18.51
2023-05-01T02:45:35.150Z,18.32
2023-05-01T02:48:41.221Z,18.51
2023-05-01T02:51:47.453Z,18.56
2023-05-01T02:54:51.940Z,18.70
2023-05-01T02:57:59.902Z,18.60
2023-05-01T03:01:04.351Z,18.44
2023-05-01T03:04:07.779Z,18.38
2023-05-01T03:07:17.962Z,18.39
2023-05-01T03:10:31.867Z,18.59
2023-05-01T03:13:35.615Z,18.53
2023-05-01T03:16:39.331Z,18.52
2023-05-01T03:19:43.377Z,18.57
2023-05-01T03:22:46.917Z,18.70
2023-05-01T03:25:50.789Z,18.80
2023-05-01T03:28:54.119Z,18.94
2023-05-01T03:31:58.614Z,19.01
2023-05-01T03:35:02.402Z,18.89
2023-05-01T03:38:06.780Z,18.84
2023-05-01T03:41:48.553Z,18.83
2023-05-01T03:45:01.693Z,19.01
2023-05-01T03:48:06.153Z,19.39
2023-05-01T03:51:09.945Z,19.56
2023-05-01T03:54:14.931Z,19.84
2023-05-01T03:57:42.730Z,19.70
2023-05-01T04:00:47.459Z,19.34
2023-05-01T04:03:52.757Z,19.31
2023-05-01T04:06:59.013Z,19.35
2023-05-01T04:10:27.640Z,19.79
2023-05-01T04:13:47.345Z,19.90
2023-05-01T04:17:03.118Z,20.17
2023-05-01T04:24:09.937Z,20.57
2023-05-01T04:27:39.017Z,20.86
2023-05-01T04:34:20.582Z,21.37
2023-05-01T04:40:54.992Z,21.24
2023-05-01T04:44:04.194Z,21.24
2023-05-01T04:47:17.510Z,21.18
2023-05-01T04:50:26.291Z,20.90
2023-05-01T04:53:32.973Z,20.91
2023-05-01T04:56:38.126Z,20.84
2023-05-01T04:59:44.576Z,20.57
2023-05-01T05:02:50.636Z,20.31
2023-05-01T05:05:54.228Z,20.37
2023-05-01T05:09:22.603Z,20.21
2023-05-01T05:12:33.416Z,19.94
2023-05-01T05:15:45.399Z,19.91
2023-05-01T05:19:42.423Z,19.98
2023-05-01T05:23:19.543Z,19.96
2023-05-01T05:26:23.253Z,19.90
2023-05-01T05:29:29.826Z,19.96
2023-05-01T05:32:33.394Z,20.10
2023-05-01T05:35:40.859Z,20.13
2023-05-01T05:38:45.152Z,20.17
2023-05-01T05:41:54.525Z,20.10
2023-05-01T05:45:05.769Z,20.16
2023-05-01T05:48:12.658Z,20.29
2023-05-01T05:51:22.161Z,20.41
2023-05-01T05:54:35.826Z,20.55
2023-05-01T05:57:46.049Z,20.73
2023-05-01T06:00:59.372Z,20.89
2023-05-01T06:04:03.013Z,20.97
2023-05-01T06:07:11.518Z,21.01
2023-05-01T06:10:17.765Z,21.04
2023-05-01T06:13:21.309Z,21.04
2023-05-01T06:16:26.358Z,21.18
2023-05-01T06:19:30.212Z,21.21
2023-05-01T06:22:41.919Z,21.18
2023-05-01T06:25:52.240Z,21.07
2023-05-01T06:28:56.098Z,21.07
2023-05-01T06:32:27.116Z,21.01
2023-05-01T06:35:33.217Z,20.93
2023-05-01T06:38:36.746Z,20.97
2023-05-01T06:41:48.930Z,21.20
2023-05-01T06:44:55.548Z,21.30
2023-05-01T06:47:59.168Z,21.44
2023-05-01T06:51:02.584Z,21.49
2023-05-01T06:54:05.935Z,21.59
2023-05-01T06:57:09.564Z,21.66
2023-05-01T07:00:13.556Z,21.73
2023-05-01T07:03:21.381Z,21.75
2023-05-01T07:06:25.053Z,21.88
2023-05-01T07:09:28.657Z,21.89
2023-05-01T07:12:32.408Z,21.82
2023-05-01T07:15:35.900Z,21.97
2023-05-01T07:18:39.262Z,22.09
2023-05-01T07:21:42.819Z,22.06
2023-05-01T07:24:46.429Z,22.01
2023-05-01T07:27:49.867Z,22.09
2023-05-01T07:30:53.259Z,22.16
2023-05-01T07:33:57.673Z,22.11
2023-05-01T07:37:02.727Z,22.21
2023-05-01T07:40:11.776Z,22.13
2023-05-01T07:43:18.723Z,22.24
2023-05-01T07:46:24.993Z,22.07
2023-05-01T07:49:30.890Z,22.11
2023-05-01T07:52:34.487Z,21.97
2023-05-01T07:55:38.714Z,22.07
2023-05-01T07:58:45.553Z,22.06
2023-05-01T08:02:14.586Z,21.97
2023-05-01T08:05:17.942Z,21.82
2023-05-01T08:08:30.092Z,21.86
2023-05-01T08:11:34.543Z,21.97
2023-05-01T08:15:00.299Z,22.06
2023-05-01T08:18:03.880Z,21.97
2023-05-01T08:21:07.524Z,21.88
2023-05-01T08:24:16.712Z,21.67
2023-05-01T08:27:27.330Z,21.67
2023-05-01T08:30:32.366Z,21.80
2023-05-01T08:33:42.826Z,21.99
2023-05-01T08:36:49.383Z,22.01
2023-05-01T08:39:58.564Z,22.01
2023-05-01T08:43:07.291Z,22.10
2023-05-01T08:46:14.408Z,22.24
2023-05-01T08:49:43.726Z,22.27
2023-05-01T08:52:53.860Z,22.20
2023-05-01T08:56:01.317Z,22.22
2023-05-01T08:59:06.179Z,22.04
2023-05-01T09:02:13.565Z,22.03
2023-05-01T09:05:21.379Z,22.07
2023-05-01T09:08:24.801Z,22.11
2023-05-01T09:11:31.568Z,22.01
2023-05-01T09:15:03.486Z,21.99
2023-05-01T09:18:15.370Z,21.86
2023-05-01T09:21:22.075Z,21.73
2023-05-01T09:24:31.551Z,21.71
2023-05-01T09:27:38.869Z,21.71
2023-05-01T09:30:51.627Z,21.58
2023-05-01T09:34:00.600Z,21.49
2023-05-01T09:37:32.768Z,21.39
2023-05-01T09:40:36.130Z,21.14
2023-05-01T09:44:22.885Z,20.97
2023-05-01T09:47:51.339Z,20.48
2023-05-01T09:50:54.808Z,20.25
2023-05-01T09:54:03.332Z,19.89
2023-05-01T09:57:07.842Z,19.56
2023-05-01T10:01:02.737Z,19.31
2023-05-01T10:04:13.305Z,19.08
2023-05-01T10:07:16.648Z,18.84
2023-05-01T10:10:23.762Z,18.76
2023-05-01T10:13:36.780Z,18.67
2023-05-01T10:16:43.889Z,18.55
2023-05-01T10:19:56.969Z,18.41
2023-05-01T10:23:07.123Z,18.21
2023-05-01T10:26:17.327Z,18.15
2023-05-01T10:29:24.556Z,18.04
2023-05-01T10:32:36.316Z,17.89
2023-05-01T10:35:45.205Z,17.73
2023-05-01T10:38:51.613Z,17.59
2023-05-01T10:42:13.106Z,17.52
2023-05-01T10:45:32.396Z,17.42
2023-05-01T10:48:44.464Z,17.36
2023-05-01T10:51:59.895Z,17.25
2023-05-01T10:55:36.968Z,17.19
2023-05-01T11:02:28.070Z,17.04
2023-05-01T11:06:05.675Z,16.97
2023-05-01T11:09:58.209Z,16.94
2023-05-01T11:16:43.143Z,16.83
2023-05-01T11:20:37.523Z,16.83
2023-05-01T11:23:48.216Z,16.79
2023-05-01T11:26:55.056Z,16.73
2023-05-01T11:30:01.806Z,16.67
2023-05-01T11:33:11.167Z,16.60
2023-05-01T11:36:53.808Z,16.51
2023-05-01T11:40:05.300Z,16.33
2023-05-01T11:43:13.302Z,16.19
2023-05-01T11:46:24.636Z,16.10
2023-05-01T11:49:31.824Z,16.02
2023-05-01T11:52:50.971Z,15.94
2023-05-01T11:55:54.398Z,15.89
2023-05-01T11:58:58.903Z,15.82
2023-05-01T12:02:20.398Z,15.74
2023-05-01T12:05:24.415Z,15.66
2023-05-01T12:08:30.754Z,15.56
2023-05-01T12:12:01.728Z,15.46
2023-05-01T12:15:05.574Z,15.36
2023-05-01T12:18:42.804Z,15.24
2023-05-01T12:21:46.582Z,15.14
2023-05-01T12:24:53.836Z,15.04
2023-05-01T12:28:05.137Z,14.98
2023-05-01T12:31:09.517Z,14.90
2023-05-01T12:34:19.055Z,14.83
2023-05-01T12:37:47.596Z,14.73
2023-05-01T12:41:01.944Z,14.66
2023-05-01T12:44:19.708Z,14.55
2023-05-01T12:47:27.537Z,14.49
2023-05-01T12:50:39.397Z,14.45
2023-05-01T12:53:58.061Z,14.36
2023-05-01T12:57:33.997Z,14.29
2023-05-01T13:00:56.719Z,14.19
2023-05-01T13:04:03.535Z,14.11
2023-05-01T13:07:14.492Z,14.04
2023-05-01T13:10:33.544Z,14.00
2023-05-01T13:13:38.198Z,13.94
2023-05-01T13:17:09.986Z,13.85
2023-05-01T13:20:16.917Z,13.78
2023-05-01T13:24:13.396Z,13.70
2023-05-01T13:28:20.356Z,13.56
2023-05-01T13:31:23.796Z,13.46
2023-05-01T13:34:31.367Z,13.40
2023-05-01T13:37:37.619Z,13.29
2023-05-01T13:40:43.684Z,13.19
2023-05-01T13:44:56.283Z,13.12
2023-05-01T13:47:59.702Z,13.04
2023-05-01T13:51:03.170Z,12.97
2023-05-01T13:54:08.239Z,12.85
2023-05-01T14:00:40.792Z,12.61
2023-05-01T14:04:12.466Z,12.56
2023-05-01T14:07:20.806Z,12.52
2023-05-01T14:10:31.269Z,12.46
2023-05-01T14:13:35.097Z,12.40
2023-05-01T14:17:04.137Z,12.29
2023-05-01T14:20:19.982Z,12.22
2023-05-01T14:23:48.093Z,12.19
2023-05-01T14:26:54.232Z,12.08
2023-05-01T14:30:00.449Z,12.01
2023-05-01T14:33:18.849Z,11.98
2023-05-01T14:36:28.907Z,11.94
2023-05-01T14:40:09.682Z,11.91
2023-05-01T14:43:21.002Z,11.88
2023-05-01T14:46:50.350Z,11.88
2023-05-01T14:49:55.047Z,11.80
2023-05-01T14:53:01.188Z,11.76
2023-05-01T14:56:09.756Z,11.66
2023-05-01T14:59:28.358Z,11.59
2023-05-01T15:02:57.006Z,11.49
2023-05-01T15:06:06.817Z,11.43
2023-05-01T15:09:35.114Z,11.40
2023-05-01T15:12:38.416Z,11.35
2023-05-01T15:15:44.722Z,11.22
2023-05-01T15:18:50.772Z,11.15
2023-05-01T15:21:54.146Z,11.10
2023-05-01T15:24:57.885Z,11.07
2023-05-01T15:28:01.326Z,11.00
2023-05-01T15:31:04.603Z,10.91
2023-05-01T15:34:07.840Z,10.83
2023-05-01T15:37:11.213Z,10.78
2023-05-01T15:40:14.716Z,10.74
2023-05-01T15:43:18.072Z,10.75
2023-05-01T15:46:23.982Z,10.74
2023-05-01T15:49:27.519Z,10.68
2023-05-01T15:52:30.799Z,10.73
2023-05-01T15:55:35.338Z,10.73
2023-05-01T15:58:38.809Z,10.67
2023-05-01T16:01:43.109Z,10.57
2023-05-01T16:04:49.552Z,10.47
2023-05-01T16:07:56.497Z,10.42
2023-05-01T16:10:59.829Z,10.38
2023-05-01T16:14:03.725Z,10.26
2023-05-01T16:17:07.473Z,10.23
2023-05-01T16:20:12.735Z,10.21
2023-05-01T16:23:16.634Z,10.16
2023-05-01T16:26:25.687Z,10.18
2023-05-01T16:29:33.922Z,10.11
2023-05-01T16:32:37.523Z,10.06
2023-05-01T16:35:41.984Z,10.01
2023-05-01T16:38:46.610Z,9.91
2023-05-01T16:41:51.909Z,9.84
2023-05-01T16:44:57.135Z,9.75
2023-05-01T16:48:00.783Z,9.70
2023-05-01T16:51:06.895Z,9.63
2023-05-01T16:54:10.225Z,9.50
2023-05-01T16:57:13.542Z,9.46
2023-05-01T17:00:18.289Z,9.39
2023-05-01T17:03:21.734Z,9.33
2023-05-01T17:06:25.129Z,9.28
2023-05-01T17:09:28.559Z,9.18
2023-05-01T17:12:32.582Z,9.14
2023-05-01T17:15:35.856Z,9.05
2023-05-01T17:18:39.153Z,9.01
2023-05-01T17:21:44.025Z,8.89
2023-05-01T17:24:48.019Z,8.83
2023-05-01T17:27:51.328Z,8.75
2023-05-01T17:30:54.621Z,8.64
2023-05-01T17:33:58.442Z,8.56
2023-05-01T17:37:01.719Z,8.46
2023-05-01T17:40:05.707Z,8.43
2023-05-01T17:43:08.997Z,8.36
2023-05-01T17:46:14.611Z,8.32
2023-05-01T17:49:17.914Z,8.30
2023-05-01T17:52:21.286Z,8.29
2023-05-01T17:55:25.230Z,8.22
2023-05-01T17:58:28.662Z,8.19
2023-05-01T18:01:32.887Z,8.15
2023-05-01T18:04:37.430Z,8.08
2023-05-01T18:07:41.789Z,8.08
2023-05-01T18:10:45.053Z,8.08
2023-05-01T18:13:48.790Z,8.02
2023-05-01T18:16:53.384Z,7.99
2023-05-01T18:19:57.076Z,7.92
2023-05-01T18:23:00.678Z,7.90
2023-05-01T18:26:04.452Z,7.84
2023-05-01T18:29:08.388Z,7.78
2023-05-01T18:32:13.507Z,7.80
2023-05-01T18:35:19.289Z,7.80
2023-05-01T18:38:22.650Z,7.71
2023-05-01T18:41:28.957Z,7.67
2023-05-01T18:44:32.368Z,7.56
2023-05-01T18:47:35.716Z,7.36
2023-05-01T18:50:39.055Z,7.26
2023-05-01T18:53:42.346Z,7.22
2023-05-01T18:56:45.956Z,7.22
2023-05-01T18:59:49.295Z,7.18
2023-05-01T19:02:53.575Z,7.12
2023-05-01T19:05:56.939Z,7.08
2023-05-01T19:09:00.250Z,6.98
2023-05-01T19:12:03.751Z,6.90
2023-05-01T19:15:07.436Z,6.83
2023-05-01T19:18:11.221Z,6.79
2023-05-01T19:21:14.589Z,6.70
2023-05-01T19:24:17.817Z,6.53
2023-05-01T19:27:21.372Z,6.45
2023-05-01T19:30:24.747Z,6.40
2023-05-01T19:33:28.080Z,6.29
2023-05-01T19:36:31.346Z,6.29
2023-05-01T19:39:34.641Z,6.28
2023-05-01T19:42:38.162Z,6.25
2023-05-01T19:45:41.534Z,6.25
2023-05-01T19:48:44.844Z,6.28
2023-05-01T19:51:48.102Z,6.21
2023-05-01T19:54:51.399Z,6.15
2023-05-01T19:57:54.774Z,6.17
2023-05-01T20:01:00.628Z,6.11
2023-05-01T20:04:04.017Z,6.10
2023-05-01T20:07:07.364Z,6.14
2023-05-01T20:10:11.024Z,6.12
2023-05-01T20:13:14.267Z,6.10
2023-05-01T20:16:17.605Z,6.11
2023-05-01T20:19:20.951Z,6.08
2023-05-01T20:22:24.249Z,6.05
2023-05-01T20:25:27.553Z,6.14
2023-05-01T20:28:30.986Z,6.08
2023-05-01T20:31:35.179Z,6.00
2023-05-01T20:34:38.632Z,5.98
2023-05-01T20:37:42.059Z,6.07
2023-05-01T20:40:45.426Z,6.08
2023-05-01T20:43:48.672Z,6.07
2023-05-01T20:46:52.270Z,6.10
2023-05-01T20:49:57.159Z,6.15
2023-05-01T20:53:00.769Z,6.25
2023-05-01T20:56:04.059Z,6.24
2023-05-01T20:59:08.065Z,6.17
2023-05-01T21:02:11.871Z,6.17
2023-05-01T21:05:16.928Z,6.17
2023-05-01T21:08:20.625Z,6.18
2023-05-01T21:11:23.968Z,6.21
2023-05-01T21:14:30.177Z,6.28
2023-05-01T21:17:35.622Z,6.12
2023-05-01T21:20:40.215Z,6.01
2023-05-01T21:23:48.603Z,5.94
2023-05-01T21:26:52.500Z,5.94
2023-05-01T21:30:00.932Z,6.01
2023-05-01T21:33:07.683Z,6.07
2023-05-01T21:36:12.108Z,6.14
2023-05-01T21:39:16.319Z,6.18
2023-05-01T21:42:19.641Z,6.40
2023-05-01T21:45:23.338Z,6.63
2023-05-01T21:48:35.575Z,6.58
2023-05-01T21:51:39.980Z,6.58
2023-05-01T21:54:43.244Z,6.69
2023-05-01T21:57:46.982Z,6.67
2023-05-01T22:00:52.117Z,6.74
2023-05-01T22:03:55.634Z,6.91
2023-05-01T22:06:58.939Z,6.88
2023-05-01T22:10:02.602Z,6.77
2023-05-01T22:13:06.967Z,6.77
2023-05-01T22:16:10.340Z,6.63
2023-05-01T22:19:13.825Z,6.73
2023-05-01T22:22:17.192Z,6.94
2023-05-01T22:25:20.631Z,7.01
2023-05-01T22:28:24.348Z,7.08
2023-05-01T22:31:27.858Z,7.19
2023-05-01T22:34:31.216Z,7.25
2023-05-01T22:37:38.288Z,7.35
2023-05-01T22:40:41.636Z,7.35
2023-05-01T22:43:44.869Z,7.26
2023-05-01T22:46:48.408Z,7.16
2023-05-01T22:49:51.820Z,7.18
2023-05-01T22:52:55.107Z,7.07
2023-05-01T22:55:58.392Z,6.92
2023-05-01T22:59:01.819Z,6.92
2023-05-01T23:02:05.526Z,6.97
2023-05-01T23:05:09.746Z,7.08
2023-05-01T23:08:13.202Z,7.32
2023-05-01T23:11:19.595Z,7.55
2023-05-01T23:14:23.139Z,7.67
2023-05-01T23:17:27.854Z,7.67
2023-05-01T23:20:31.258Z,7.52
2023-05-01T23:23:36.780Z,7.45
2023-05-01T23:26:42.149Z,7.55
2023-05-01T23:29:55.254Z,7.63
2023-05-01T23:33:00.704Z,7.66
2023-05-01T23:36:04.899Z,7.55
2023-05-01T23:39:08.510Z,7.40
2023-05-01T23:42:11.891Z,7.35
2023-05-01T23:45:16.041Z,7.29
2023-05-01T23:48:19.464Z,7.40
2023-05-01T23:51:22.993Z,7.33
2023-05-01T23:54:26.596Z,7.29
2023-05-01T23:57:30.200Z,7.25
